Time;durP1;ratioP1;P1;durP2;ratioP2;P2;SDS_P1;SDS_P2;PMS_P1;PMS_P2;Temp;Humidity;BMP_temperature;BMP_pressure;BME280_temperature;BME280_humidity;BME280_pressure;Samples;Min_cycle;Max_cycle;Signal;HPM_P1;HPM_P2
2022/06/21 00:01:57;;;;;;;0.40;0.20;;;17.70;99.90;;;;;;5013769;28;20400;-70
2022/06/21 00:04:23;;;;;;;0.40;0.30;;;17.60;99.90;;;;;;5012881;28;20384;-69
2022/06/21 00:06:49;;;;;;;0.40;0.20;;;17.70;99.90;;;;;;5012018;28;20485;-69
2022/06/21 00:09:14;;;;;;;0.40;0.30;;;17.50;99.90;;;;;;5012849;28;20459;-70
2022/06/21 00:11:40;;;;;;;0.45;0.32;;;17.60;99.90;;;;;;5013194;28;20484;-70
2022/06/21 00:14:07;;;;;;;0.40;0.20;;;17.60;99.90;;;;;;5012322;28;20428;-70
2022/06/21 00:16:32;;;;;;;0.40;0.20;;;17.70;99.90;;;;;;5013140;28;20430;-70
2022/06/21 00:18:59;;;;;;;0.40;0.20;;;17.30;99.90;;;;;;5011921;28;20897;-70
2022/06/21 00:21:30;;;;;;;0.40;0.20;;;17.30;99.90;;;;;;5012691;28;20472;-70
2022/06/21 00:23:56;;;;;;;0.40;0.20;;;17.20;99.90;;;;;;5013299;28;20393;-70
2022/06/21 00:26:24;;;;;;;0.40;0.20;;;17.40;99.90;;;;;;5012443;28;20396;-70
2022/06/21 00:28:50;;;;;;;0.40;0.30;;;17.30;99.70;;;;;;5013485;28;20428;-69
2022/06/21 00:31:24;;;;;;;0.40;0.40;;;17.30;99.90;;;;;;5011643;28;20401;-70
2022/06/21 00:33:50;;;;;;;0.40;0.20;;;17.00;99.70;;;;;;5012842;28;20413;-70
2022/06/21 00:36:19;;;;;;;0.40;0.20;;;17.10;99.90;;;;;;5012010;28;20404;-70
2022/06/21 00:38:45;;;;;;;0.40;0.20;;;17.00;99.90;;;;;;5013248;28;20400;-69
2022/06/21 00:41:13;;;;;;;0.40;0.20;;;16.90;99.90;;;;;;5012045;28;20404;-69
2022/06/21 00:43:47;;;;;;;0.40;0.20;;;16.70;99.90;;;;;;5012556;28;20409;-70
2022/06/21 00:46:29;;;;;;;0.40;0.30;;;16.80;99.90;;;;;;5011955;28;20401;-70
2022/06/21 00:48:56;;;;;;;0.40;0.30;;;16.90;99.90;;;;;;5012960;28;20889;-70
2022/06/21 00:51:39;;;;;;;0.40;0.30;;;16.80;99.90;;;;;;5011791;28;20455;-70
2022/06/21 00:54:54;;;;;;;0.40;0.20;;;16.80;99.90;;;;;;4998111;28;20407;-70
2022/06/21 00:57:25;;;;;;;0.40;0.20;;;16.80;99.90;;;;;;4951093;29;20752;-70
2022/06/21 00:59:53;;;;;;;0.40;0.30;;;16.80;99.90;;;;;;5008441;28;20408;-70
2022/06/21 01:02:31;;;;;;;0.40;0.30;;;16.80;99.90;;;;;;5011823;28;20392;-70
2022/06/21 01:04:59;;;;;;;0.40;0.20;;;16.80;99.90;;;;;;5012714;28;20389;-70
2022/06/21 01:07:25;;;;;;;0.40;0.20;;;16.60;99.90;;;;;;5011013;28;20401;-69
2022/06/21 01:10:11;;;;;;;0.40;0.28;;;16.60;99.90;;;;;;5012169;28;20423;-70
2022/06/21 01:12:45;;;;;;;0.40;0.30;;;16.80;99.90;;;;;;5011575;28;20804;-70
2022/06/21 01:15:17;;;;;;;0.40;0.20;;;16.60;99.90;;;;;;5011789;28;20567;-70
2022/06/21 01:17:44;;;;;;;0.60;0.60;;;16.50;99.90;;;;;;4994666;28;20408;-69
2022/06/21 01:20:17;;;;;;;0.40;0.20;;;16.60;99.90;;;;;;4993806;28;20765;-70
2022/06/21 01:23:06;;;;;;;0.40;0.20;;;16.60;99.90;;;;;;5012314;28;20738;-69
2022/06/21 01:26:20;;;;;;;0.50;0.37;;;16.80;99.90;;;;;;5012071;28;20404;-70
2022/06/21 01:28:46;;;;;;;0.50;0.50;;;16.60;99.90;;;;;;4938051;28;20967;-69
2022/06/21 01:31:12;;;;;;;0.40;0.20;;;16.60;99.90;;;;;;5005675;28;20480;-67
2022/06/21 01:33:42;;;;;;;0.40;0.30;;;16.60;99.90;;;;;;5011519;28;20412;-70
2022/06/21 01:36:17;;;;;;;0.40;0.30;;;16.60;99.90;;;;;;5010940;28;20496;-70
2022/06/21 01:38:55;;;;;;;0.40;0.20;;;16.60;99.90;;;;;;5012093;28;20385;-70
2022/06/21 01:41:35;;;;;;;0.60;0.50;;;16.50;99.90;;;;;;5010201;28;20408;-70
2022/06/21 01:44:07;;;;;;;0.40;0.30;;;16.60;99.90;;;;;;5011357;28;20411;-70
2022/06/21 01:46:33;;;;;;;0.40;0.30;;;16.20;99.90;;;;;;5011074;28;20488;-71
2022/06/21 01:49:06;;;;;;;0.40;0.20;;;16.20;99.90;;;;;;5010417;28;20425;-70
2022/06/21 01:51:38;;;;;;;0.40;0.30;;;16.10;99.90;;;;;;5011362;28;20389;-70
2022/06/21 01:54:07;;;;;;;0.40;0.30;;;16.10;99.90;;;;;;5011803;28;20423;-70
2022/06/21 01:56:37;;;;;;;0.50;0.40;;;16.40;99.90;;;;;;5010907;28;20389;-70
2022/06/21 01:59:14;;;;;;;0.40;0.30;;;16.10;99.90;;;;;;5011803;28;20873;-70
2022/06/21 02:02:08;;;;;;;0.40;0.20;;;16.30;99.90;;;;;;5011212;28;20404;-70
2022/06/21 02:04:42;;;;;;;0.40;0.23;;;16.30;99.90;;;;;;5011377;28;20393;-70
2022/06/21 02:07:13;;;;;;;0.57;0.57;;;16.30;99.90;;;;;;5010454;28;20408;-71
2022/06/21 02:09:45;;;;;;;0.40;0.20;;;16.10;99.90;;;;;;5011357;28;20413;-70
2022/06/21 02:12:14;;;;;;;0.40;0.30;;;16.30;99.90;;;;;;5010660;28;20447;-70
2022/06/21 02:14:47;;;;;;;0.40;0.20;;;16.30;99.90;;;;;;5011394;28;20396;-70
2022/06/21 02:17:12;;;;;;;1.10;0.90;;;16.30;99.90;;;;;;5010218;28;20412;-70
2022/06/21 02:20:00;;;;;;;0.40;0.28;;;16.30;99.90;;;;;;5011272;28;20413;-70
2022/06/21 02:22:28;;;;;;;0.40;0.20;;;16.20;99.90;;;;;;5010772;28;20442;-71
2022/06/21 02:24:55;;;;;;;0.40;0.20;;;16.00;99.90;;;;;;4974287;28;20452;-70
2022/06/21 02:27:24;;;;;;;0.40;0.30;;;16.10;99.90;;;;;;5006499;28;20532;-70
2022/06/21 02:29:54;;;;;;;0.40;0.20;;;16.00;99.90;;;;;;5011037;28;20570;-70
2022/06/21 02:32:34;;;;;;;0.40;0.20;;;16.10;99.90;;;;;;5010135;28;20487;-70
2022/06/21 02:35:15;;;;;;;0.40;0.20;;;16.00;99.90;;;;;;5011163;28;20401;-70
2022/06/21 02:37:41;;;;;;;0.50;0.50;;;15.90;99.90;;;;;;5010808;28;20400;-70
2022/06/21 02:40:10;;;;;;;0.40;0.20;;;15.90;99.90;;;;;;5010399;28;20581;-70
2022/06/21 02:42:40;;;;;;;0.40;0.30;;;16.10;99.90;;;;;;5010492;28;20393;-69
2022/06/21 02:45:18;;;;;;;0.40;0.20;;;16.20;99.90;;;;;;5010910;28;20401;-70
2022/06/21 02:47:45;;;;;;;0.40;0.20;;;16.00;99.90;;;;;;5009048;28;20393;-70
2022/06/21 02:50:34;;;;;;;0.40;0.20;;;16.00;99.90;;;;;;5009990;28;20503;-70
2022/06/21 02:53:02;;;;;;;0.70;0.70;;;15.90;99.90;;;;;;5010851;28;20419;-71
2022/06/21 02:55:41;;;;;;;0.40;0.20;;;16.10;99.90;;;;;;5013983;28;20397;-71
2022/06/21 02:58:13;;;;;;;0.40;0.30;;;16.10;99.90;;;;;;5015033;28;20397;-71
2022/06/21 03:00:42;;;;;;;0.40;0.30;;;16.00;99.90;;;;;;5014573;28;20401;-71
2022/06/21 03:03:22;;;;;;;0.40;0.30;;;16.10;99.90;;;;;;5014206;28;20408;-71
2022/06/21 03:05:50;;;;;;;0.40;0.20;;;16.10;99.90;;;;;;5014789;28;20473;-71
2022/06/21 03:08:17;;;;;;;0.40;0.20;;;16.30;99.90;;;;;;5013769;28;20388;-71
2022/06/21 03:10:46;;;;;;;1.40;0.70;;;16.20;99.90;;;;;;5014429;28;20411;-71
2022/06/21 03:13:19;;;;;;;0.40;0.20;;;16.00;99.90;;;;;;5014074;28;20412;-71
2022/06/21 03:15:52;;;;;;;0.40;0.20;;;16.00;99.90;;;;;;5014440;28;20408;-71
2022/06/21 03:18:23;;;;;;;0.40;0.30;;;15.90;99.90;;;;;;5013551;28;20452;-70
2022/06/21 03:20:49;;;;;;;0.40;0.30;;;15.90;99.90;;;;;;5014301;28;20380;-71
2022/06/21 03:23:15;;;;;;;0.40;0.40;;;15.90;99.90;;;;;;4994112;28;20880;-72
2022/06/21 03:25:48;;;;;;;0.40;0.20;;;16.00;99.90;;;;;;4994934;28;20386;-70
2022/06/21 03:28:27;;;;;;;0.40;0.20;;;16.10;99.90;;;;;;5002020;28;20458;-71
2022/06/21 03:31:21;;;;;;;0.40;0.20;;;15.60;99.90;;;;;;5014003;28;20392;-71
2022/06/21 03:33:52;;;;;;;0.40;0.20;;;15.70;99.90;;;;;;5013634;28;20424;-71
2022/06/21 03:36:22;;;;;;;0.40;0.20;;;15.70;99.90;;;;;;5013632;28;20427;-70
2022/06/21 03:38:52;;;;;;;0.70;0.60;;;15.70;99.90;;;;;;5013918;28;20845;-71
2022/06/21 03:44:29;;;;;;;0.40;0.20;;;15.90;99.90;;;;;;5013624;28;20447;-70
2022/06/21 03:47:03;;;;;;;0.40;0.20;;;15.70;99.90;;;;;;5014438;28;20800;-71
2022/06/21 03:49:29;;;;;;;0.40;0.30;;;15.70;99.90;;;;;;5013157;28;20412;-70
2022/06/21 03:51:56;;;;;;;0.70;0.70;;;15.70;99.90;;;;;;5007882;28;20402;-70
2022/06/21 03:54:30;;;;;;;0.40;0.30;;;15.90;99.90;;;;;;5002997;28;20414;-71
2022/06/21 03:57:06;;;;;;;0.40;0.20;;;15.90;99.90;;;;;;5013956;28;20384;-71
2022/06/21 03:59:40;;;;;;;0.40;0.20;;;16.10;99.90;;;;;;5012578;28;20408;-67
2022/06/21 04:02:15;;;;;;;0.40;0.20;;;15.90;99.90;;;;;;5013800;28;20865;-70
2022/06/21 04:04:43;;;;;;;0.40;0.20;;;16.00;99.90;;;;;;5013038;28;20450;-70
2022/06/21 04:07:24;;;;;;;0.40;0.20;;;16.00;99.90;;;;;;5013499;28;20397;-70
2022/06/21 04:10:04;;;;;;;0.40;0.30;;;15.90;99.90;;;;;;5013465;28;20416;-70
2022/06/21 04:12:36;;;;;;;0.40;0.20;;;15.80;99.90;;;;;;5005760;28;20488;-70
2022/06/21 04:15:02;;;;;;;0.40;0.30;;;15.90;99.90;;;;;;5013438;28;20434;-69
2022/06/21 04:18:07;;;;;;;0.40;0.20;;;15.90;99.90;;;;;;5012815;28;20480;-68
2022/06/21 04:20:50;;;;;;;0.40;0.20;;;15.80;99.90;;;;;;4973586;28;20757;-67
2022/06/21 04:23:40;;;;;;;0.40;0.20;;;15.90;99.90;;;;;;5007087;28;20875;-67
2022/06/21 04:26:30;;;;;;;0.40;0.20;;;15.80;99.90;;;;;;4999964;28;20911;-67
2022/06/21 04:29:14;;;;;;;0.40;0.20;;;15.80;99.90;;;;;;5012571;28;20499;-67
2022/06/21 04:31:49;;;;;;;0.80;0.80;;;15.70;99.90;;;;;;5012704;28;20403;-67
2022/06/21 04:34:20;;;;;;;0.40;0.30;;;15.70;99.90;;;;;;5009810;28;20424;-67
2022/06/21 04:37:12;;;;;;;0.40;0.30;;;15.80;99.90;;;;;;5009406;28;20393;-67
2022/06/21 04:39:49;;;;;;;0.40;0.30;;;15.80;99.90;;;;;;5007203;28;20581;-67
2022/06/21 04:42:22;;;;;;;0.40;0.30;;;15.70;99.90;;;;;;5009657;28;20491;-67
2022/06/21 04:45:01;;;;;;;0.40;0.20;;;15.90;99.90;;;;;;5012052;28;20396;-67
2022/06/21 04:47:35;;;;;;;0.70;0.70;;;15.90;99.90;;;;;;5010814;28;20396;-67
2022/06/21 04:50:21;;;;;;;0.40;0.25;;;15.80;99.90;;;;;;5007646;28;20420;-67
2022/06/21 04:52:56;;;;;;;0.40;0.20;;;16.00;99.90;;;;;;5009179;28;20404;-68
2022/06/21 04:55:32;;;;;;;0.40;0.40;;;16.00;99.90;;;;;;4993687;28;20410;-68
2022/06/21 04:57:58;;;;;;;0.40;0.20;;;16.00;99.90;;;;;;4992189;28;20863;-67
2022/06/21 05:00:24;;;;;;;0.40;0.30;;;16.20;99.90;;;;;;5009606;28;20416;-67
2022/06/21 05:02:54;;;;;;;0.40;0.20;;;16.30;99.90;;;;;;5012413;28;20392;-67
2022/06/21 05:05:47;;;;;;;0.60;0.60;;;16.50;99.90;;;;;;5010750;28;20412;-68
2022/06/21 05:08:16;;;;;;;0.40;0.20;;;16.50;99.90;;;;;;5007149;28;20408;-67
2022/06/21 05:10:46;;;;;;;0.40;0.20;;;16.70;99.90;;;;;;5010475;28;20433;-67
2022/06/21 05:13:28;;;;;;;0.40;0.20;;;16.70;99.90;;;;;;5011034;28;20396;-67
2022/06/21 05:15:57;;;;;;;0.40;0.28;;;16.80;99.90;;;;;;5010972;28;20540;-68
2022/06/21 05:18:43;;;;;;;0.60;0.60;;;16.80;99.90;;;;;;5011169;28;20750;-68
2022/06/21 05:21:24;;;;;;;0.40;0.20;;;16.70;99.90;;;;;;5012458;28;20738;-68
2022/06/21 05:23:50;;;;;;;0.40;0.28;;;16.80;99.90;;;;;;5011796;28;20392;-68
2022/06/21 05:26:30;;;;;;;0.40;0.20;;;17.00;99.90;;;;;;5011888;28;20965;-68
2022/06/21 05:29:01;;;;;;;0.40;0.30;;;17.10;99.90;;;;;;5010908;28;20891;-68
2022/06/21 05:31:31;;;;;;;0.40;0.20;;;17.10;99.90;;;;;;5006037;28;20414;-68
2022/06/21 05:34:05;;;;;;;0.40;0.20;;;17.10;99.90;;;;;;5001125;28;20416;-68
2022/06/21 05:36:35;;;;;;;0.40;0.20;;;17.00;99.90;;;;;;5010419;28;20758;-68
2022/06/21 05:39:07;;;;;;;0.40;0.30;;;17.10;99.90;;;;;;5011395;28;20409;-68
2022/06/21 05:41:42;;;;;;;0.40;0.30;;;17.20;99.90;;;;;;5011014;28;20885;-68
2022/06/21 05:44:21;;;;;;;0.40;0.30;;;17.30;99.90;;;;;;5011696;28;20893;-68
2022/06/21 05:46:50;;;;;;;0.40;0.20;;;17.20;99.90;;;;;;5004997;28;20425;-68
2022/06/21 05:49:24;;;;;;;0.60;0.60;;;17.20;99.90;;;;;;5007494;28;20424;-68
2022/06/21 05:51:52;;;;;;;0.40;0.20;;;17.20;99.90;;;;;;5010849;28;20892;-68
2022/06/21 05:54:23;;;;;;;0.40;0.20;;;17.20;99.90;;;;;;5011031;28;20393;-68
2022/06/21 05:56:50;;;;;;;0.40;0.20;;;17.20;99.90;;;;;;5010973;28;20408;-68
2022/06/21 05:59:20;;;;;;;0.40;0.20;;;17.10;99.90;;;;;;5011348;28;20970;-68
2022/06/21 06:02:08;;;;;;;0.40;0.20;;;17.20;99.90;;;;;;5010556;28;20401;-68
2022/06/21 06:04:42;;;;;;;0.40;0.20;;;17.20;99.90;;;;;;5007731;28;20421;-68
2022/06/21 06:07:15;;;;;;;0.40;0.20;;;17.30;99.90;;;;;;5009045;28;20436;-68
2022/06/21 06:09:47;;;;;;;0.40;0.40;;;17.50;99.90;;;;;;5002898;28;20440;-68
2022/06/21 06:12:20;;;;;;;0.40;0.20;;;17.70;99.90;;;;;;5010378;28;20397;-68
2022/06/21 06:15:06;;;;;;;0.40;0.20;;;17.80;99.90;;;;;;5010852;28;20431;-68
2022/06/21 06:17:54;;;;;;;0.40;0.20;;;17.60;99.90;;;;;;5010696;28;20516;-68
2022/06/21 06:20:29;;;;;;;0.40;0.30;;;17.30;99.90;;;;;;5010600;28;20401;-68
2022/06/21 06:23:16;;;;;;;0.40;0.20;;;17.40;99.90;;;;;;5010540;28;20439;-68
2022/06/21 06:25:54;;;;;;;0.40;0.30;;;17.60;99.90;;;;;;5009346;28;20480;-68
2022/06/21 06:28:26;;;;;;;0.40;0.20;;;17.70;99.90;;;;;;5006447;28;20877;-68
2022/06/21 06:31:01;;;;;;;0.40;0.20;;;17.60;99.90;;;;;;4993289;28;20382;-68
2022/06/21 06:33:35;;;;;;;0.40;0.20;;;17.70;99.90;;;;;;5007876;28;20519;-68
2022/06/21 06:36:08;;;;;;;0.40;0.30;;;17.70;99.90;;;;;;5011324;28;20409;-68
2022/06/21 06:38:34;;;;;;;0.60;0.60;;;17.70;99.90;;;;;;5007732;28;20423;-68
2022/06/21 06:41:10;;;;;;;0.40;0.30;;;17.70;99.90;;;;;;4997028;28;20405;-67
2022/06/21 06:43:56;;;;;;;0.40;0.20;;;18.00;99.90;;;;;;4989533;28;20485;-67
2022/06/21 06:46:32;;;;;;;0.40;0.20;;;18.00;99.90;;;;;;4998375;28;20447;-67
2022/06/21 06:49:29;;;;;;;0.40;0.30;;;18.00;99.90;;;;;;5002740;28;20476;-68
2022/06/21 06:51:55;;;;;;;0.40;0.30;;;18.10;99.90;;;;;;5010107;28;20909;-67
2022/06/21 06:54:41;;;;;;;0.40;0.30;;;18.00;99.90;;;;;;5011017;28;20428;-67
2022/06/21 06:57:23;;;;;;;0.80;0.80;;;18.20;99.90;;;;;;5010901;28;20472;-67
2022/06/21 06:59:48;;;;;;;0.40;0.30;;;18.40;99.90;;;;;;5009953;28;20403;-67
2022/06/21 07:02:23;;;;;;;0.40;0.30;;;18.50;99.90;;;;;;5011101;28;20385;-68
2022/06/21 07:04:56;;;;;;;0.60;0.60;;;18.50;99.90;;;;;;5010446;28;20393;-67
2022/06/21 07:07:29;;;;;;;0.40;0.30;;;18.70;99.90;;;;;;5010628;28;20384;-67
2022/06/21 07:10:02;;;;;;;0.40;0.20;;;18.80;99.90;;;;;;5010685;28;20412;-68
2022/06/21 07:12:31;;;;;;;0.40;0.20;;;19.00;99.90;;;;;;4997817;28;20421;-69
2022/06/21 07:14:58;;;;;;;0.40;0.20;;;18.90;99.90;;;;;;5007745;28;20465;-68
2022/06/21 07:17:36;;;;;;;0.40;0.30;;;19.00;99.90;;;;;;5000720;28;20484;-68
2022/06/21 07:20:02;;;;;;;0.40;0.30;;;19.10;99.90;;;;;;4995537;28;20413;-68
2022/06/21 07:22:34;;;;;;;0.40;0.20;;;18.90;99.90;;;;;;5007621;28;21183;-69
2022/06/21 07:25:25;;;;;;;0.40;0.22;;;18.90;99.90;;;;;;5005017;28;20897;-67
2022/06/21 07:28:14;;;;;;;0.40;0.30;;;18.80;99.90;;;;;;4997303;28;20485;-67
2022/06/21 07:30:43;;;;;;;0.40;0.30;;;18.90;99.90;;;;;;5002167;28;20784;-68
2022/06/21 07:33:16;;;;;;;0.40;0.20;;;18.90;99.90;;;;;;5008906;28;20495;-67
2022/06/21 07:35:59;;;;;;;0.40;0.40;;;19.10;99.90;;;;;;5009447;28;20437;-68
2022/06/21 07:38:37;;;;;;;0.40;0.20;;;19.20;99.90;;;;;;5010320;28;20869;-67
2022/06/21 07:41:13;;;;;;;0.40;0.30;;;19.10;99.90;;;;;;5010440;28;22649;-68
2022/06/21 07:44:13;;;;;;;0.40;0.30;;;18.90;99.90;;;;;;5003434;28;20381;-68
2022/06/21 07:46:53;;;;;;;0.40;0.30;;;19.00;99.90;;;;;;4992439;28;20400;-68
2022/06/21 07:49:33;;;;;;;0.40;0.25;;;18.80;99.90;;;;;;5014152;28;20919;-67
2022/06/21 07:52:04;;;;;;;0.50;0.40;;;18.90;99.90;;;;;;5013735;28;20462;-68
2022/06/21 07:54:39;;;;;;;0.40;0.30;;;18.80;99.90;;;;;;5010205;28;20404;-68
2022/06/21 07:57:14;;;;;;;0.40;0.30;;;18.70;99.90;;;;;;5006049;28;20416;-67
2022/06/21 07:59:45;;;;;;;0.40;0.30;;;18.90;99.90;;;;;;5004470;28;20865;-67
2022/06/21 08:08:38;;;;;;;3.60;1.00;;;19.10;99.90;;;;;;5012715;28;20439;-68
2022/06/21 08:11:11;;;;;;;0.40;0.20;;;19.40;99.90;;;;;;5013527;28;20393;-68
2022/06/21 08:13:40;;;;;;;0.40;0.30;;;19.30;99.90;;;;;;5013242;28;20407;-67
2022/06/21 08:16:21;;;;;;;0.40;0.20;;;19.20;99.90;;;;;;5012893;28;20479;-67
2022/06/21 08:19:27;;;;;;;0.40;0.30;;;19.40;99.90;;;;;;5012797;28;20397;-68
2022/06/21 08:22:04;;;;;;;0.40;0.30;;;19.60;99.90;;;;;;5012898;28;20381;-68
2022/06/21 08:25:01;;;;;;;0.40;0.22;;;19.80;99.90;;;;;;5013202;28;20385;-69
2022/06/21 08:27:34;;;;;;;0.40;0.30;;;19.80;99.90;;;;;;5004635;28;20401;-67
2022/06/21 08:30:27;;;;;;;0.40;0.20;;;20.10;99.90;;;;;;5012408;28;20932;-68
2022/06/21 08:33:02;;;;;;;0.40;0.20;;;20.20;99.90;;;;;;5012226;28;20408;-68
2022/06/21 08:35:34;;;;;;;0.40;0.20;;;20.30;99.90;;;;;;5010390;28;20749;-68
2022/06/21 08:38:14;;;;;;;0.40;0.20;;;20.50;99.90;;;;;;5006783;28;20759;-68
2022/06/21 08:40:59;;;;;;;0.40;0.30;;;20.50;99.90;;;;;;5011976;28;20416;-69
2022/06/21 08:43:43;;;;;;;0.40;0.30;;;20.50;99.90;;;;;;5001538;28;20411;-68
2022/06/21 08:46:36;;;;;;;0.40;0.30;;;20.60;99.90;;;;;;5000881;28;20408;-69
2022/06/21 08:49:26;;;;;;;0.40;0.30;;;20.70;99.90;;;;;;4981640;28;20424;-67
2022/06/21 08:52:22;;;;;;;0.40;0.20;;;20.60;99.90;;;;;;5011761;28;20388;-68
2022/06/21 08:54:51;;;;;;;0.40;0.30;;;20.70;99.90;;;;;;4995275;28;20393;-69
2022/06/21 08:57:28;;;;;;;0.50;0.40;;;20.80;99.90;;;;;;5008652;28;20405;-69
2022/06/21 09:00:02;;;;;;;0.40;0.30;;;20.90;99.90;;;;;;4995809;28;20406;-69
2022/06/21 09:02:43;;;;;;;0.80;0.80;;;20.90;99.90;;;;;;4993204;28;20407;-68
2022/06/21 09:05:27;;;;;;;0.40;0.20;;;20.80;99.90;;;;;;4993186;28;20814;-68
2022/06/21 09:07:56;;;;;;;0.50;0.50;;;20.90;99.90;;;;;;5010246;28;20488;-68
2022/06/21 09:10:24;;;;;;;0.40;0.30;;;21.10;99.90;;;;;;5011188;28;20865;-68
2022/06/21 09:12:59;;;;;;;0.40;0.30;;;21.10;99.90;;;;;;5011685;28;20377;-68
2022/06/21 09:15:49;;;;;;;0.40;0.30;;;21.20;99.90;;;;;;5001256;28;20385;-68
2022/06/21 09:18:52;;;;;;;0.50;0.40;;;21.40;99.90;;;;;;5011195;28;20397;-69
2022/06/21 09:21:26;;;;;;;0.80;0.60;;;21.20;99.90;;;;;;5006437;28;20412;-69
2022/06/21 09:23:52;;;;;;;0.50;0.30;;;21.40;99.90;;;;;;5009372;28;20419;-69
2022/06/21 09:26:55;;;;;;;0.40;0.30;;;21.50;99.90;;;;;;5006175;28;20472;-67
2022/06/21 09:29:27;;;;;;;0.90;0.90;;;21.80;99.90;;;;;;5010646;28;20466;-68
2022/06/21 09:32:07;;;;;;;0.70;0.70;;;22.00;99.90;;;;;;4995575;28;21026;-68
2022/06/21 09:34:54;;;;;;;0.40;0.20;;;21.90;99.90;;;;;;5007994;28;20496;-67
2022/06/21 09:37:41;;;;;;;0.40;0.30;;;22.00;99.90;;;;;;5009983;28;20780;-67
2022/06/21 09:40:16;;;;;;;0.70;0.70;;;22.10;99.90;;;;;;5003067;28;20396;-68
2022/06/21 09:42:57;;;;;;;0.57;0.40;;;22.40;99.90;;;;;;5007911;28;20432;-68
2022/06/21 09:45:28;;;;;;;0.50;0.30;;;22.60;99.90;;;;;;5012123;28;20408;-67
2022/06/21 09:48:25;;;;;;;0.40;0.30;;;22.70;99.90;;;;;;5008416;28;20477;-68
2022/06/21 09:51:27;;;;;;;0.40;0.20;;;22.70;99.90;;;;;;4993698;28;20512;-68
2022/06/21 09:53:52;;;;;;;0.40;0.30;;;22.70;99.90;;;;;;5002886;28;20414;-68
2022/06/21 09:56:48;;;;;;;0.50;0.40;;;22.80;99.90;;;;;;5012903;28;20445;-67
2022/06/21 09:59:43;;;;;;;0.40;0.30;;;22.90;99.90;;;;;;4989889;28;20451;-68
2022/06/21 10:02:37;;;;;;;0.50;0.30;;;22.90;99.90;;;;;;5008469;28;20962;-68
2022/06/21 10:05:09;;;;;;;0.40;0.30;;;23.00;99.90;;;;;;5008379;28;20416;-67
2022/06/21 10:07:41;;;;;;;0.40;0.20;;;23.00;99.90;;;;;;5011344;28;20809;-67
2022/06/21 10:10:18;;;;;;;0.60;0.60;;;23.00;99.90;;;;;;5011289;28;20409;-67
2022/06/21 10:13:22;;;;;;;0.40;0.20;;;23.10;99.90;;;;;;5010529;28;20397;-67
2022/06/21 10:15:57;;;;;;;0.40;0.30;;;23.60;99.90;;;;;;4995313;28;20407;-67
2022/06/21 10:18:41;;;;;;;0.50;0.50;;;23.80;99.90;;;;;;5011189;28;20842;-67
2022/06/21 10:21:44;;;;;;;0.40;0.30;;;24.20;99.90;;;;;;5000937;28;20397;-67
2022/06/21 10:24:13;;;;;;;0.40;0.20;;;24.30;99.90;;;;;;5010957;28;20753;-67
2022/06/21 10:27:00;;;;;;;0.40;0.20;;;24.20;99.90;;;;;;5010070;28;20404;-68
2022/06/21 10:29:34;;;;;;;0.40;0.30;;;24.40;99.90;;;;;;5010303;28;20420;-67
2022/06/21 10:32:19;;;;;;;0.40;0.30;;;24.60;99.90;;;;;;5009741;28;20412;-67
2022/06/21 10:35:00;;;;;;;0.40;0.30;;;25.00;99.90;;;;;;5008742;28;20404;-68
2022/06/21 10:37:47;;;;;;;0.40;0.30;;;25.10;99.90;;;;;;5006306;28;20455;-67
2022/06/21 10:40:36;;;;;;;0.40;0.30;;;25.20;99.30;;;;;;5006822;28;20817;-68
2022/06/21 10:43:39;;;;;;;0.40;0.30;;;25.30;98.60;;;;;;5010090;28;20384;-67
2022/06/21 10:46:17;;;;;;;0.40;0.20;;;25.80;98.00;;;;;;5011051;28;20476;-68
2022/06/21 10:48:58;;;;;;;0.40;0.20;;;26.00;95.90;;;;;;5009963;28;20389;-67
2022/06/21 10:51:46;;;;;;;0.40;0.20;;;25.80;94.40;;;;;;5010961;28;20431;-67
2022/06/21 10:54:54;;;;;;;0.40;0.30;;;25.60;95.50;;;;;;5010903;28;20464;-67
2022/06/21 10:57:47;;;;;;;0.40;0.30;;;25.10;95.70;;;;;;5010925;28;20381;-68
2022/06/21 11:03:44;;;;;;;0.40;0.20;;;24.90;96.10;;;;;;4990490;28;20820;-67
2022/06/21 11:06:48;;;;;;;0.43;0.32;;;24.70;96.40;;;;;;4990775;28;20474;-67
2022/06/21 11:09:16;;;;;;;0.50;0.40;;;24.70;97.50;;;;;;4986933;28;20595;-67
2022/06/21 11:11:47;;;;;;;0.40;0.30;;;24.70;96.90;;;;;;4990515;28;20449;-68
2022/06/21 11:14:18;;;;;;;0.40;0.20;;;24.70;96.60;;;;;;4992133;28;20824;-68
2022/06/21 11:16:53;;;;;;;0.40;0.30;;;25.00;96.40;;;;;;4994487;28;20529;-68
2022/06/21 11:19:36;;;;;;;0.40;0.40;;;25.20;96.80;;;;;;4995010;28;20391;-68
2022/06/21 11:22:09;;;;;;;0.70;0.70;;;25.60;96.00;;;;;;4994325;28;20394;-67
2022/06/21 11:24:50;;;;;;;0.40;0.20;;;25.70;95.70;;;;;;4994595;28;20394;-68
2022/06/21 11:27:42;;;;;;;0.40;0.30;;;26.30;93.50;;;;;;4994915;28;20382;-67
2022/06/21 11:30:36;;;;;;;0.40;0.30;;;26.50;93.10;;;;;;4994783;28;20422;-68
2022/06/21 11:33:25;;;;;;;0.50;0.30;;;26.50;93.50;;;;;;5009110;28;21089;-67
2022/06/21 11:36:11;;;;;;;0.40;0.30;;;26.70;92.80;;;;;;5020106;28;20403;-67
2022/06/21 11:39:06;;;;;;;0.47;0.30;;;27.50;91.10;;;;;;5009034;28;20795;-68
2022/06/21 11:42:09;;;;;;;0.40;0.30;;;27.70;86.50;;;;;;4991558;28;20825;-68
2022/06/21 11:44:40;;;;;;;0.50;0.30;;;28.20;84.90;;;;;;5014140;28;20385;-68
2022/06/21 11:47:29;;;;;;;0.40;0.20;;;29.30;83.10;;;;;;5013719;28;20396;-67
2022/06/21 11:50:13;;;;;;;0.40;0.20;;;29.40;76.10;;;;;;5013319;28;20456;-67
2022/06/21 11:52:59;;;;;;;0.40;0.20;;;30.00;75.50;;;;;;5012689;28;20421;-69
2022/06/21 11:55:48;;;;;;;0.40;0.20;;;30.90;72.00;;;;;;5014020;28;20411;-67
2022/06/21 11:58:32;;;;;;;0.40;0.20;;;31.30;62.30;;;;;;5013558;28;20869;-67
2022/06/21 12:01:03;;;;;;;0.40;0.20;;;31.50;61.70;;;;;;5004270;28;20421;-67
2022/06/21 12:03:59;;;;;;;0.40;0.20;;;30.30;69.90;;;;;;4996923;28;20410;-67
2022/06/21 12:06:46;;;;;;;0.40;0.20;;;31.20;64.40;;;;;;5013915;28;20392;-67
2022/06/21 12:09:49;;;;;;;0.40;0.20;;;31.50;63.80;;;;;;5013298;28;20466;-68
2022/06/21 12:12:44;;;;;;;0.40;0.20;;;32.10;63.40;;;;;;5013232;28;20404;-67
2022/06/21 12:15:41;;;;;;;0.40;0.22;;;32.10;59.60;;;;;;5004046;28;20412;-68
2022/06/21 12:18:14;;;;;;;0.40;0.20;;;32.40;59.20;;;;;;5012351;28;20467;-68
2022/06/21 12:20:43;;;;;;;0.40;0.20;;;32.40;58.70;;;;;;5013519;28;20432;-68
2022/06/21 12:23:23;;;;;;;0.40;0.20;;;32.20;59.90;;;;;;5011937;28;20409;-68
2022/06/21 12:25:49;;;;;;;0.40;0.20;;;31.80;59.40;;;;;;5011893;28;20381;-68
2022/06/21 12:28:24;;;;;;;0.40;0.20;;;32.50;60.70;;;;;;5013510;28;20392;-68
2022/06/21 12:30:51;;;;;;;0.40;0.20;;;31.90;62.20;;;;;;5002436;28;20415;-68
2022/06/21 12:33:20;;;;;;;0.40;0.20;;;32.30;58.30;;;;;;4995159;28;20553;-68
2022/06/21 12:36:18;;;;;;;0.40;0.20;;;31.50;60.30;;;;;;5002313;28;20890;-68
2022/06/21 12:38:52;;;;;;;0.40;0.20;;;30.60;62.50;;;;;;5008723;28;20712;-70
2022/06/21 12:41:39;;;;;;;0.40;0.20;;;31.60;66.80;;;;;;5012855;28;20393;-68
2022/06/21 12:44:24;;;;;;;0.40;0.20;;;31.10;64.40;;;;;;5010774;28;20442;-67
2022/06/21 12:47:01;;;;;;;0.40;0.20;;;31.10;60.70;;;;;;4992599;28;20391;-68
2022/06/21 12:50:00;;;;;;;0.40;0.20;;;31.20;61.90;;;;;;4995702;28;20414;-67
2022/06/21 12:52:58;;;;;;;0.40;0.20;;;30.30;62.70;;;;;;5003891;28;20394;-67
2022/06/21 12:55:41;;;;;;;0.98;0.45;;;30.50;64.90;;;;;;4993293;28;20389;-67
2022/06/21 12:58:39;;;;;;;0.40;0.20;;;30.40;67.00;;;;;;4992346;28;20459;-67
2022/06/21 13:01:17;;;;;;;0.40;0.20;;;30.60;64.00;;;;;;4969577;28;20398;-67
2022/06/21 13:04:15;;;;;;;0.40;0.20;;;30.40;66.20;;;;;;4993344;28;20402;-66
2022/06/21 13:07:18;;;;;;;0.40;0.20;;;30.40;63.90;;;;;;4993119;28;20394;-67
2022/06/21 13:10:10;;;;;;;0.40;0.20;;;30.90;63.70;;;;;;4992960;28;20767;-66
2022/06/21 13:12:36;;;;;;;0.40;0.30;;;30.20;66.60;;;;;;4993347;28;20731;-66
2022/06/21 13:15:11;;;;;;;0.40;0.20;;;30.80;63.20;;;;;;4992141;28;20481;-68
2022/06/21 13:17:58;;;;;;;0.50;0.40;;;30.90;63.20;;;;;;4992969;28;20383;-67
2022/06/21 13:20:41;;;;;;;0.40;0.20;;;30.70;63.00;;;;;;5008257;28;20844;-68
2022/06/21 13:23:31;;;;;;;0.40;0.20;;;30.80;63.80;;;;;;4996094;28;20501;-68
2022/06/21 13:26:29;;;;;;;1.00;0.80;;;30.40;63.00;;;;;;5008927;28;20868;-68
2022/06/21 13:29:00;;;;;;;0.40;0.30;;;30.30;63.20;;;;;;5008871;28;20412;-67
2022/06/21 13:31:26;;;;;;;0.40;0.20;;;30.30;66.20;;;;;;5011791;28;20385;-68
2022/06/21 13:33:55;;;;;;;0.43;0.27;;;30.70;66.60;;;;;;5010326;28;20834;-67
2022/06/21 13:36:46;;;;;;;0.40;0.20;;;30.60;65.30;;;;;;5011806;28;20412;-67
2022/06/21 13:39:28;;;;;;;0.40;0.30;;;31.00;67.50;;;;;;5009464;28;20405;-67
2022/06/21 13:42:37;;;;;;;0.40;0.30;;;30.80;64.30;;;;;;5000148;28;21013;-68
2022/06/21 13:45:29;;;;;;;0.40;0.30;;;30.70;68.90;;;;;;4929097;29;20415;-69
2022/06/21 13:48:11;;;;;;;0.40;0.22;;;30.40;65.80;;;;;;5009563;28;20483;-69
2022/06/21 13:51:01;;;;;;;0.40;0.20;;;30.50;67.50;;;;;;5011814;28;20431;-68
2022/06/21 13:53:58;;;;;;;0.40;0.30;;;30.30;67.30;;;;;;5011154;28;20405;-68
2022/06/21 13:56:41;;;;;;;0.40;0.20;;;30.00;69.00;;;;;;5003834;28;20434;-68
2022/06/21 13:59:12;;;;;;;0.40;0.20;;;30.30;72.70;;;;;;4991455;28;20402;-68